Time;durP1;ratioP1;P1;durP2;ratioP2;P2;SDS_P1;SDS_P2;PMS_P1;PMS_P2;Temp;Humidity;BMP_temperature;BMP_pressure;BME280_temperature;BME280_humidity;BME280_pressure;Samples;Min_cycle;Max_cycle;Signal;HPM_P1;HPM_P2
2023/06/08 00:01:35;;;;;;;10.93;5.80;;;16.20;99.90;;;;;;5023933;28;20205;-58
2023/06/08 00:04:05;;;;;;;8.70;5.47;;;16.20;99.90;;;;;;5025507;28;20604;-58
2023/06/08 00:06:33;;;;;;;10.87;5.17;;;16.00;99.90;;;;;;5014948;28;20225;-58
2023/06/08 00:09:06;;;;;;;11.40;5.90;;;16.10;99.90;;;;;;5012434;28;20201;-58
2023/06/08 00:11:33;;;;;;;12.37;6.40;;;16.10;99.90;;;;;;5017399;28;20209;-58
2023/06/08 00:14:01;;;;;;;11.40;5.77;;;16.10;99.90;;;;;;5020548;28;20211;-58
2023/06/08 00:16:28;;;;;;;12.43;5.50;;;16.10;99.90;;;;;;5016417;28;20721;-59
2023/06/08 00:18:56;;;;;;;11.73;6.10;;;16.10;99.90;;;;;;5020769;28;20306;-58
2023/06/08 00:21:24;;;;;;;11.37;5.83;;;16.10;99.90;;;;;;5018778;28;20217;-58
2023/06/08 00:23:51;;;;;;;8.50;6.33;;;16.00;99.90;;;;;;5033877;28;21024;-59
2023/06/08 00:26:18;;;;;;;13.93;6.10;;;16.00;99.90;;;;;;5014064;28;20203;-59
2023/06/08 00:28:47;;;;;;;10.07;5.70;;;15.90;99.90;;;;;;5017361;28;20205;-58
2023/06/08 00:31:18;;;;;;;15.20;6.50;;;15.80;99.90;;;;;;5019865;28;20194;-58
2023/06/08 00:33:45;;;;;;;15.57;6.30;;;15.80;99.90;;;;;;5017098;28;20263;-58
2023/06/08 00:36:13;;;;;;;12.33;6.10;;;15.90;99.90;;;;;;5018272;28;20319;-58
2023/06/08 00:38:40;;;;;;;11.13;7.17;;;15.80;99.90;;;;;;5032746;28;20209;-58
2023/06/08 00:41:07;;;;;;;10.20;5.53;;;15.70;99.90;;;;;;5017795;28;20211;-58
2023/06/08 00:43:34;;;;;;;11.10;6.43;;;15.80;99.90;;;;;;5019021;28;20215;-58
2023/06/08 00:46:02;;;;;;;11.33;5.63;;;15.70;99.90;;;;;;5015301;28;20597;-58
2023/06/08 00:48:30;;;;;;;11.63;6.70;;;15.60;99.90;;;;;;5021267;28;20654;-58
2023/06/08 00:51:00;;;;;;;13.90;6.50;;;15.70;99.90;;;;;;5016439;28;20227;-58
2023/06/08 00:53:28;;;;;;;9.73;6.33;;;15.70;99.90;;;;;;5016549;28;21072;-58
2023/06/08 00:55:57;;;;;;;9.87;6.83;;;15.70;99.90;;;;;;5021604;28;20202;-58
2023/06/08 00:58:25;;;;;;;12.53;5.97;;;15.60;99.90;;;;;;5018009;28;20207;-59
2023/06/08 01:00:59;;;;;;;14.07;6.40;;;15.60;99.90;;;;;;5020639;28;20208;-58
2023/06/08 01:03:33;;;;;;;11.33;6.77;;;15.50;99.90;;;;;;5020079;28;20297;-58
2023/06/08 01:06:03;;;;;;;13.47;6.10;;;15.50;99.90;;;;;;5018955;28;20226;-58
2023/06/08 01:09:09;;;;;;;10.30;6.23;;;15.60;99.90;;;;;;5022672;28;20594;-58
2023/06/08 01:11:42;;;;;;;11.30;6.87;;;15.60;99.90;;;;;;5019482;28;20216;-58
2023/06/08 01:14:38;;;;;;;10.27;5.70;;;15.50;99.90;;;;;;5019005;28;20312;-59
2023/06/08 01:17:17;;;;;;;9.23;6.03;;;15.80;99.90;;;;;;5015499;28;20347;-58
2023/06/08 01:20:09;;;;;;;11.30;6.77;;;15.70;99.90;;;;;;5019418;28;20480;-58
2023/06/08 01:23:03;;;;;;;10.73;6.70;;;15.60;99.90;;;;;;5020149;28;20761;-60
2023/06/08 01:25:36;;;;;;;14.20;6.37;;;15.50;99.90;;;;;;5017984;28;20205;-58
2023/06/08 01:28:15;;;;;;;12.47;6.40;;;15.30;99.90;;;;;;5014305;28;20627;-58
2023/06/08 01:30:48;;;;;;;15.27;6.30;;;15.30;99.90;;;;;;5020636;28;20211;-58
2023/06/08 01:33:22;;;;;;;12.30;5.97;;;15.20;99.90;;;;;;5014928;28;20355;-57
2023/06/08 01:36:10;;;;;;;10.37;6.73;;;15.20;99.90;;;;;;5016404;28;21660;-58
2023/06/08 01:39:05;;;;;;;17.93;7.30;;;15.20;99.90;;;;;;5017987;28;20626;-58
2023/06/08 01:41:39;;;;;;;14.50;7.07;;;15.10;99.90;;;;;;5023962;28;20605;-57
2023/06/08 01:44:14;;;;;;;16.37;7.33;;;15.00;99.90;;;;;;5019786;28;20216;-58
2023/06/08 01:46:47;;;;;;;13.73;6.10;;;14.80;99.90;;;;;;5020737;28;20203;-58
2023/06/08 01:49:18;;;;;;;13.67;6.30;;;14.90;99.90;;;;;;5018774;28;20747;-58
2023/06/08 01:51:45;;;;;;;12.07;6.83;;;14.90;99.90;;;;;;5022575;28;20203;-58
2023/06/08 01:54:15;;;;;;;14.20;6.13;;;14.80;99.90;;;;;;5021814;28;20298;-58
2023/06/08 01:56:43;;;;;;;11.27;6.37;;;15.00;99.90;;;;;;5019878;28;20302;-58
2023/06/08 01:59:13;;;;;;;9.77;6.30;;;15.00;99.90;;;;;;5023049;28;20254;-59
2023/06/08 02:01:40;;;;;;;11.70;6.97;;;15.00;99.90;;;;;;5021544;28;20566;-58
2023/06/08 02:04:10;;;;;;;15.27;7.10;;;14.90;99.90;;;;;;5017907;28;20291;-59
2023/06/08 02:06:41;;;;;;;9.87;6.37;;;14.90;99.90;;;;;;5015244;28;20294;-58
2023/06/08 02:09:14;;;;;;;15.10;7.03;;;14.80;99.90;;;;;;5019914;28;20223;-58
2023/06/08 02:11:50;;;;;;;11.33;6.80;;;14.90;99.90;;;;;;5023320;28;20198;-57
2023/06/08 02:14:17;;;;;;;14.20;6.80;;;14.70;99.90;;;;;;5022146;28;20226;-58
2023/06/08 02:16:45;;;;;;;11.10;6.63;;;14.70;99.90;;;;;;5014234;28;20218;-58
2023/06/08 02:19:13;;;;;;;13.67;7.17;;;14.60;99.90;;;;;;5020715;28;20209;-58
2023/06/08 02:21:43;;;;;;;9.70;6.83;;;14.50;99.90;;;;;;5017564;28;20480;-58
2023/06/08 02:24:10;;;;;;;12.13;6.83;;;14.50;99.90;;;;;;5017048;28;20218;-58
2023/06/08 02:26:42;;;;;;;12.97;6.60;;;14.40;99.90;;;;;;5016538;28;20593;-58
2023/06/08 02:29:18;;;;;;;15.07;7.50;;;14.40;99.90;;;;;;5016380;28;20312;-58
2023/06/08 02:31:48;;;;;;;10.83;6.83;;;14.30;99.90;;;;;;5019397;28;20288;-58
2023/06/08 02:34:15;;;;;;;16.40;7.63;;;14.20;99.90;;;;;;5019869;28;20320;-58
2023/06/08 02:36:44;;;;;;;13.97;6.83;;;14.30;99.90;;;;;;5016000;28;20209;-61
2023/06/08 02:39:13;;;;;;;15.33;7.63;;;14.50;99.90;;;;;;5018486;28;20253;-58
2023/06/08 02:41:40;;;;;;;11.03;6.97;;;14.30;99.90;;;;;;5018264;28;20675;-58
2023/06/08 02:44:07;;;;;;;12.63;7.37;;;14.30;99.90;;;;;;5013383;28;20266;-58
2023/06/08 02:46:38;;;;;;;17.17;7.73;;;14.40;99.90;;;;;;5011515;28;20212;-58
2023/06/08 02:49:05;;;;;;;13.60;7.63;;;14.40;99.90;;;;;;5021897;28;20964;-58
2023/06/08 02:51:36;;;;;;;14.83;7.13;;;14.30;99.90;;;;;;5011762;28;20221;-59
2023/06/08 02:54:03;;;;;;;14.27;7.43;;;14.30;99.90;;;;;;5015300;28;20199;-57
2023/06/08 02:56:31;;;;;;;14.80;7.57;;;14.30;99.90;;;;;;5019799;28;20269;-57
2023/06/08 02:58:58;;;;;;;11.50;7.03;;;14.30;99.90;;;;;;5022448;28;20691;-59
2023/06/08 03:01:30;;;;;;;10.60;6.97;;;14.20;99.90;;;;;;5019538;28;20638;-58
2023/06/08 03:03:58;;;;;;;11.63;6.93;;;14.10;99.90;;;;;;5011348;28;20242;-57
2023/06/08 03:06:26;;;;;;;12.27;7.33;;;14.10;99.90;;;;;;5019061;28;20206;-57
2023/06/08 03:08:54;;;;;;;12.23;7.53;;;13.90;99.90;;;;;;5012148;28;20281;-58
2023/06/08 03:11:23;;;;;;;16.20;7.60;;;14.00;99.90;;;;;;5016980;28;20195;-58
2023/06/08 03:13:50;;;;;;;15.47;7.67;;;14.00;99.90;;;;;;5015888;28;20734;-58
2023/06/08 03:16:20;;;;;;;13.77;7.90;;;14.10;99.90;;;;;;5018590;28;20220;-57
2023/06/08 03:18:53;;;;;;;17.07;7.57;;;14.10;99.90;;;;;;5015188;28;20328;-57
2023/06/08 03:21:20;;;;;;;14.00;7.40;;;14.00;99.90;;;;;;5013403;28;20206;-58
2023/06/08 03:23:51;;;;;;;16.13;7.70;;;14.20;99.90;;;;;;5018657;28;20689;-58
2023/06/08 03:26:18;;;;;;;15.37;7.87;;;14.10;99.90;;;;;;5013582;28;20203;-57
2023/06/08 03:28:46;;;;;;;15.17;7.50;;;14.10;99.90;;;;;;5014342;28;20211;-57
2023/06/08 03:31:20;;;;;;;11.30;7.23;;;14.00;99.90;;;;;;5017967;28;20718;-58
2023/06/08 03:33:48;;;;;;;13.63;7.10;;;13.90;99.90;;;;;;5011788;28;20231;-57
2023/06/08 03:36:15;;;;;;;15.17;7.53;;;14.00;99.90;;;;;;5017280;28;20223;-58
2023/06/08 03:38:42;;;;;;;15.37;7.43;;;14.00;99.90;;;;;;5019687;28;20228;-57
2023/06/08 03:41:16;;;;;;;13.03;7.50;;;14.00;99.90;;;;;;5019367;28;20219;-57
2023/06/08 03:43:44;;;;;;;13.27;8.17;;;14.00;99.90;;;;;;5018343;28;20387;-60
2023/06/08 03:46:11;;;;;;;13.43;7.37;;;13.90;99.90;;;;;;5018946;28;20203;-57
2023/06/08 03:48:50;;;;;;;16.07;7.67;;;13.90;99.90;;;;;;5019379;28;20711;-58
2023/06/08 03:51:25;;;;;;;14.90;7.30;;;13.90;99.90;;;;;;5012253;28;20202;-58
2023/06/08 03:53:53;;;;;;;10.80;6.23;;;14.00;99.90;;;;;;5016487;28;20214;-58
2023/06/08 03:56:20;;;;;;;12.60;8.23;;;13.90;99.90;;;;;;5017293;28;20207;-57
2023/06/08 03:58:59;;;;;;;16.17;7.67;;;13.90;99.90;;;;;;5018065;28;20332;-57
2023/06/08 04:01:28;;;;;;;13.07;7.17;;;14.00;99.90;;;;;;5013835;28;20637;-57
2023/06/08 04:04:04;;;;;;;10.93;7.57;;;14.00;99.90;;;;;;5019379;28;20242;-57
2023/06/08 04:06:33;;;;;;;13.97;7.30;;;14.00;99.90;;;;;;5022274;28;20616;-57
2023/06/08 04:09:03;;;;;;;13.30;7.50;;;14.00;99.90;;;;;;5023565;28;20568;-57
2023/06/08 04:11:38;;;;;;;12.67;7.37;;;13.90;99.90;;;;;;5017844;28;20583;-58
2023/06/08 04:14:08;;;;;;;11.03;6.80;;;13.80;99.90;;;;;;5023416;28;20584;-58
2023/06/08 04:16:41;;;;;;;12.77;7.10;;;13.80;99.90;;;;;;5022434;28;20308;-57
2023/06/08 04:19:09;;;;;;;15.47;7.53;;;13.70;99.90;;;;;;5020040;28;20668;-57
2023/06/08 04:21:39;;;;;;;14.40;7.33;;;13.70;99.90;;;;;;5017783;28;20694;-57
2023/06/08 04:24:16;;;;;;;15.00;7.63;;;13.80;99.90;;;;;;5009766;28;20237;-58
2023/06/08 04:26:45;;;;;;;14.03;7.87;;;13.80;99.90;;;;;;5011213;28;20264;-58
2023/06/08 04:29:17;;;;;;;10.70;6.60;;;13.80;99.90;;;;;;5016996;28;20687;-57
2023/06/08 04:31:45;;;;;;;14.27;6.97;;;13.60;99.90;;;;;;5012698;28;20389;-57
2023/06/08 04:34:16;;;;;;;14.33;7.43;;;13.70;99.90;;;;;;5018929;28;20560;-58
2023/06/08 04:36:49;;;;;;;12.70;8.60;;;13.60;99.90;;;;;;5023586;28;20525;-59
2023/06/08 04:39:19;;;;;;;16.13;7.20;;;13.50;99.90;;;;;;5029169;28;20209;-58
2023/06/08 04:41:47;;;;;;;12.80;7.57;;;13.60;99.90;;;;;;5018200;28;20209;-58
2023/06/08 04:44:20;;;;;;;13.67;8.63;;;13.60;99.90;;;;;;5013167;28;20788;-58
2023/06/08 04:46:48;;;;;;;14.17;7.57;;;13.70;99.90;;;;;;5016728;28;20216;-58
2023/06/08 04:49:16;;;;;;;11.93;7.33;;;13.80;99.90;;;;;;5021005;28;20274;-58
2023/06/08 04:51:46;;;;;;;14.40;6.67;;;13.90;99.90;;;;;;5017405;28;20194;-58
2023/06/08 04:54:13;;;;;;;9.80;7.33;;;13.90;99.90;;;;;;5016451;28;20223;-59
2023/06/08 04:56:41;;;;;;;10.90;7.70;;;13.80;99.90;;;;;;5016230;28;20209;-58
2023/06/08 04:59:09;;;;;;;12.80;7.17;;;13.90;99.90;;;;;;5013372;28;20221;-58
2023/06/08 05:01:36;;;;;;;13.50;7.37;;;13.90;99.90;;;;;;5013800;28;20205;-58
2023/06/08 05:04:08;;;;;;;14.17;8.07;;;13.90;99.90;;;;;;5014509;28;20250;-58
2023/06/08 05:06:37;;;;;;;11.70;7.10;;;13.90;99.90;;;;;;5019247;28;20202;-58
2023/06/08 05:09:04;;;;;;;13.03;7.53;;;13.80;99.90;;;;;;5020022;28;20280;-58
2023/06/08 05:11:31;;;;;;;12.90;8.13;;;13.80;99.90;;;;;;5019149;28;20211;-58
2023/06/08 05:14:01;;;;;;;11.47;8.13;;;13.80;99.90;;;;;;5011040;28;20201;-58
2023/06/08 05:16:28;;;;;;;12.13;7.17;;;13.90;99.90;;;;;;5015390;28;20230;-58
2023/06/08 05:18:56;;;;;;;15.30;8.33;;;13.90;99.90;;;;;;5015586;28;20214;-59
2023/06/08 05:21:23;;;;;;;13.63;7.80;;;13.80;99.90;;;;;;5013357;28;20205;-58
2023/06/08 05:23:50;;;;;;;16.20;8.40;;;13.80;99.90;;;;;;5014990;28;20760;-58
2023/06/08 05:26:17;;;;;;;12.93;8.27;;;14.00;99.90;;;;;;5014560;28;20205;-58
2023/06/08 05:28:45;;;;;;;13.80;6.90;;;14.20;99.90;;;;;;5021246;28;20197;-58
2023/06/08 05:31:18;;;;;;;13.93;8.37;;;14.20;99.90;;;;;;5021444;28;20203;-58
2023/06/08 05:33:46;;;;;;;12.60;7.47;;;14.20;99.90;;;;;;5021064;28;20287;-57
2023/06/08 05:36:14;;;;;;;14.50;8.77;;;14.10;99.90;;;;;;5023412;28;20211;-57
2023/06/08 05:38:42;;;;;;;13.83;7.77;;;13.90;99.90;;;;;;5015750;28;20266;-58
2023/06/08 05:41:10;;;;;;;18.33;9.17;;;13.90;99.90;;;;;;5018859;28;20216;-57
2023/06/08 05:43:40;;;;;;;17.93;8.57;;;14.10;99.90;;;;;;5021351;28;20206;-58
2023/06/08 05:46:06;;;;;;;13.50;8.37;;;14.20;99.90;;;;;;5018533;28;20693;-58
2023/06/08 05:48:40;;;;;;;13.10;8.60;;;14.40;99.90;;;;;;5012939;28;20196;-58
2023/06/08 05:51:15;;;;;;;12.93;9.40;;;14.30;99.90;;;;;;5016274;28;20571;-58
2023/06/08 05:53:43;;;;;;;14.23;8.97;;;14.50;99.90;;;;;;5021706;28;20617;-58
2023/06/08 05:56:10;;;;;;;18.13;9.00;;;14.60;99.90;;;;;;5016705;28;20223;-58
2023/06/08 05:58:38;;;;;;;14.77;8.87;;;14.50;99.90;;;;;;5018719;28;20665;-58
2023/06/08 06:01:20;;;;;;;13.37;9.23;;;14.60;99.90;;;;;;5008149;28;20666;-58
2023/06/08 06:03:48;;;;;;;13.23;9.07;;;14.50;99.90;;;;;;5018595;28;20248;-58
2023/06/08 06:06:21;;;;;;;14.77;9.10;;;14.70;99.90;;;;;;5021400;28;20650;-58
2023/06/08 06:08:51;;;;;;;16.63;10.07;;;14.70;99.90;;;;;;5019410;28;20212;-58
2023/06/08 06:11:18;;;;;;;15.13;9.60;;;14.80;99.90;;;;;;5016359;28;20231;-58
2023/06/08 06:13:49;;;;;;;17.87;9.57;;;14.60;99.90;;;;;;5017408;28;20701;-58
2023/06/08 06:16:19;;;;;;;17.63;9.50;;;14.60;99.90;;;;;;5014038;28;20207;-58
2023/06/08 06:18:50;;;;;;;11.10;8.73;;;14.90;99.90;;;;;;5017525;28;20215;-58
2023/06/08 06:21:20;;;;;;;18.50;9.20;;;14.60;99.90;;;;;;5024371;28;20570;-60
2023/06/08 06:23:47;;;;;;;14.00;9.47;;;14.80;99.90;;;;;;5020621;28;20210;-58
2023/06/08 06:26:14;;;;;;;12.17;8.40;;;14.80;99.90;;;;;;5025444;28;20658;-57
2023/06/08 06:28:42;;;;;;;16.50;9.27;;;14.80;99.90;;;;;;5029817;28;20625;-57
2023/06/08 06:31:09;;;;;;;16.03;9.27;;;15.10;99.90;;;;;;5021020;28;20207;-57
2023/06/08 06:33:42;;;;;;;17.10;9.77;;;15.20;99.90;;;;;;5017810;28;20232;-57
2023/06/08 06:36:09;;;;;;;19.03;9.80;;;15.00;99.90;;;;;;5023485;28;20738;-58
2023/06/08 06:38:58;;;;;;;14.93;9.63;;;15.10;99.90;;;;;;5021255;28;20236;-57
2023/06/08 06:41:26;;;;;;;16.00;10.00;;;15.30;99.90;;;;;;5004087;28;20219;-58
2023/06/08 06:44:06;;;;;;;14.30;9.47;;;15.40;99.90;;;;;;5011869;28;20218;-58
2023/06/08 06:46:33;;;;;;;13.70;9.97;;;15.90;99.90;;;;;;4661354;28;10000474;-58
2023/06/08 06:49:01;;;;;;;17.17;10.20;;;16.20;99.90;;;;;;4996248;28;20292;-57
2023/06/08 06:51:32;;;;;;;17.37;10.37;;;16.00;99.90;;;;;;5019937;28;20693;-58
2023/06/08 06:54:03;;;;;;;13.40;9.43;;;16.00;99.90;;;;;;5013004;28;20221;-58
2023/06/08 06:56:31;;;;;;;19.67;9.93;;;16.20;99.90;;;;;;5020235;28;20227;-58
2023/06/08 06:58:59;;;;;;;12.13;9.87;;;16.30;99.90;;;;;;5014614;28;20278;-59
2023/06/08 07:01:35;;;;;;;18.23;9.63;;;16.40;99.90;;;;;;5016295;28;20298;-58
2023/06/08 07:04:04;;;;;;;16.97;9.83;;;16.60;99.90;;;;;;5009286;28;20250;-58
2023/06/08 07:06:56;;;;;;;14.10;9.93;;;16.70;99.90;;;;;;5032470;28;20230;-58
2023/06/08 07:09:24;;;;;;;16.63;9.97;;;16.70;99.90;;;;;;5014915;28;21123;-59
2023/06/08 07:11:52;;;;;;;13.63;8.87;;;16.70;99.90;;;;;;5020638;28;20204;-58
2023/06/08 07:14:39;;;;;;;13.20;9.10;;;17.00;99.90;;;;;;5021794;28;20213;-59
2023/06/08 07:17:11;;;;;;;16.00;9.63;;;17.40;99.90;;;;;;5012232;28;20215;-58
2023/06/08 07:19:39;;;;;;;11.73;8.53;;;17.30;99.90;;;;;;5018410;28;20642;-58
2023/06/08 07:22:07;;;;;;;15.03;9.60;;;17.60;99.90;;;;;;5011447;28;20207;-58
2023/06/08 07:24:53;;;;;;;16.93;9.57;;;18.00;99.90;;;;;;5022330;28;20325;-57
2023/06/08 07:27:40;;;;;;;19.90;9.77;;;17.80;99.90;;;;;;5025169;28;20729;-58
2023/06/08 07:30:11;;;;;;;14.77;9.20;;;17.70;99.90;;;;;;5027428;28;20203;-57
2023/06/08 07:32:43;;;;;;;13.40;9.00;;;18.00;99.90;;;;;;5025887;28;20235;-57
2023/06/08 07:35:10;;;;;;;15.40;9.70;;;18.00;99.90;;;;;;5024021;28;20775;-57
2023/06/08 07:37:45;;;;;;;15.67;10.27;;;18.00;99.90;;;;;;5027424;28;20215;-58
2023/06/08 07:40:13;;;;;;;18.67;9.93;;;17.60;99.90;;;;;;5025689;28;20654;-57
2023/06/08 07:42:41;;;;;;;15.53;9.63;;;17.50;99.90;;;;;;5023582;28;20239;-57
2023/06/08 07:45:14;;;;;;;13.70;9.90;;;17.50;99.90;;;;;;5027381;28;20285;-57
2023/06/08 07:47:44;;;;;;;11.50;9.30;;;17.70;99.90;;;;;;5025711;28;20197;-58
2023/06/08 07:50:15;;;;;;;15.20;9.20;;;17.90;99.90;;;;;;5027567;28;20275;-58
2023/06/08 07:52:43;;;;;;;15.60;9.77;;;18.60;99.90;;;;;;5027114;28;20645;-58
2023/06/08 07:55:15;;;;;;;15.87;8.87;;;18.70;99.90;;;;;;5022451;28;20681;-58
2023/06/08 07:57:48;;;;;;;14.30;9.60;;;19.10;99.90;;;;;;5017130;28;20709;-58
2023/06/08 08:00:18;;;;;;;18.30;9.93;;;18.80;99.90;;;;;;5026323;28;20281;-58
2023/06/08 08:02:45;;;;;;;18.93;10.93;;;18.90;99.90;;;;;;5023320;28;20240;-58
2023/06/08 08:05:13;;;;;;;14.33;9.87;;;18.90;99.90;;;;;;5026236;28;20315;-57
2023/06/08 08:07:46;;;;;;;12.73;9.67;;;19.10;99.90;;;;;;5026551;28;20232;-58
2023/06/08 08:10:19;;;;;;;13.03;9.70;;;19.60;99.90;;;;;;5027330;28;20260;-58
2023/06/08 08:12:49;;;;;;;13.47;10.20;;;19.60;99.90;;;;;;5026691;28;20197;-58
2023/06/08 08:15:16;;;;;;;14.37;9.63;;;19.70;99.90;;;;;;5027994;28;20686;-58
2023/06/08 08:17:43;;;;;;;13.97;9.63;;;19.80;99.90;;;;;;5025589;28;20292;-58
2023/06/08 08:20:11;;;;;;;15.53;10.77;;;19.80;99.90;;;;;;5026604;28;20661;-56
2023/06/08 08:22:38;;;;;;;13.60;9.37;;;19.50;99.90;;;;;;5025493;28;21147;-57
2023/06/08 08:25:06;;;;;;;14.37;10.23;;;19.70;99.90;;;;;;5027138;28;20259;-59
2023/06/08 08:27:33;;;;;;;12.27;9.87;;;19.40;99.90;;;;;;5027969;28;20428;-57
2023/06/08 08:30:00;;;;;;;14.30;10.63;;;19.70;99.90;;;;;;5027689;28;20660;-56
2023/06/08 08:32:28;;;;;;;15.07;9.47;;;19.80;99.90;;;;;;5027557;28;20328;-57
2023/06/08 08:34:55;;;;;;;15.93;11.17;;;19.90;99.90;;;;;;5017268;28;20231;-57
2023/06/08 08:37:22;;;;;;;14.13;9.77;;;20.30;99.90;;;;;;5027311;28;20235;-58
2023/06/08 08:39:49;;;;;;;15.40;10.10;;;20.20;99.90;;;;;;5027721;28;20200;-58
2023/06/08 08:42:23;;;;;;;13.13;9.17;;;20.50;99.90;;;;;;5026726;28;20524;-58
2023/06/08 08:44:54;;;;;;;12.13;9.47;;;20.90;99.90;;;;;;5025787;28;20637;-57
2023/06/08 08:47:23;;;;;;;11.77;9.07;;;20.90;99.90;;;;;;5021977;28;20200;-57
2023/06/08 08:50:06;;;;;;;16.07;9.63;;;20.90;99.90;;;;;;5025612;28;20299;-59
2023/06/08 08:52:37;;;;;;;14.40;9.90;;;21.20;99.90;;;;;;5027040;28;20220;-58
2023/06/08 08:55:06;;;;;;;13.93;9.97;;;20.70;99.90;;;;;;5026704;28;20299;-58
2023/06/08 08:57:41;;;;;;;16.67;10.23;;;20.70;99.90;;;;;;5027138;28;20240;-58
2023/06/08 09:00:10;;;;;;;13.93;10.80;;;20.80;99.90;;;;;;5028458;28;20209;-58
2023/06/08 09:02:36;;;;;;;12.47;9.70;;;20.80;99.90;;;;;;5022574;28;20918;-58
2023/06/08 09:05:05;;;;;;;13.27;9.00;;;20.80;99.90;;;;;;5026117;28;20224;-58
2023/06/08 09:07:32;;;;;;;14.43;9.80;;;20.90;99.90;;;;;;5027072;28;20213;-59
2023/06/08 09:10:36;;;;;;;11.00;8.77;;;20.90;99.90;;;;;;5025073;28;20211;-58
2023/06/08 09:13:03;;;;;;;11.07;8.10;;;21.50;99.90;;;;;;4661888;28;10000097;-58
2023/06/08 09:15:37;;;;;;;13.70;8.93;;;22.20;99.90;;;;;;4989050;28;21149;-58
2023/06/08 09:18:22;;;;;;;11.97;7.97;;;22.80;99.90;;;;;;5003826;28;20598;-58
2023/06/08 09:20:51;;;;;;;10.37;8.00;;;22.60;99.90;;;;;;5010080;28;20213;-58
2023/06/08 09:23:24;;;;;;;11.50;8.87;;;22.30;99.90;;;;;;4998437;28;20577;-58
2023/06/08 09:25:52;;;;;;;12.17;8.80;;;22.20;99.90;;;;;;4996326;28;20275;-58
2023/06/08 09:28:28;;;;;;;11.97;8.23;;;22.40;99.90;;;;;;5015052;28;20689;-58
2023/06/08 09:30:57;;;;;;;11.80;8.17;;;22.50;99.90;;;;;;4997765;28;20581;-58
2023/06/08 09:33:26;;;;;;;10.03;8.50;;;22.70;99.90;;;;;;5014459;28;20233;-59
2023/06/08 09:35:56;;;;;;;12.77;7.97;;;22.20;99.90;;;;;;5014227;28;20287;-58
2023/06/08 09:38:29;;;;;;;13.50;8.33;;;22.70;99.90;;;;;;5015118;28;20755;-58
2023/06/08 09:41:16;;;;;;;11.07;9.17;;;23.10;99.90;;;;;;5018878;28;20559;-59
2023/06/08 09:43:45;;;;;;;9.27;7.40;;;23.10;99.90;;;;;;5025796;28;20217;-58
2023/06/08 09:46:33;;;;;;;10.97;6.93;;;23.40;99.90;;;;;;5024198;28;20223;-58
2023/06/08 09:49:04;;;;;;;10.83;8.07;;;23.50;99.90;;;;;;4671595;28;10000043;-60
2023/06/08 09:51:39;;;;;;;9.50;6.93;;;23.40;99.90;;;;;;5016097;28;20208;-59
2023/06/08 09:54:09;;;;;;;12.07;7.00;;;23.20;99.90;;;;;;5014960;28;20204;-57
2023/06/08 09:56:44;;;;;;;10.83;7.50;;;23.10;99.90;;;;;;5023464;28;20210;-59
2023/06/08 09:59:15;;;;;;;13.03;8.27;;;22.80;99.90;;;;;;5028703;28;20637;-57
2023/06/08 10:01:48;;;;;;;7.70;6.87;;;22.70;99.90;;;;;;5017641;28;20201;-56
2023/06/08 10:04:29;;;;;;;11.77;7.23;;;22.60;99.90;;;;;;5022386;28;20236;-59
2023/06/08 10:07:00;;;;;;;10.17;7.10;;;23.00;99.90;;;;;;5013533;28;20712;-59
2023/06/08 10:09:31;;;;;;;11.33;7.40;;;22.20;99.90;;;;;;5018543;28;20308;-57
2023/06/08 10:12:00;;;;;;;9.47;6.73;;;22.30;99.90;;;;;;5027793;28;20662;-60
2023/06/08 10:14:28;;;;;;;9.00;6.80;;;22.30;99.90;;;;;;5026162;28;20227;-56
2023/06/08 10:16:59;;;;;;;8.90;7.10;;;22.00;99.90;;;;;;5023741;28;20212;-58
2023/06/08 10:19:26;;;;;;;13.03;6.60;;;21.90;99.90;;;;;;5027358;28;20299;-56
2023/06/08 10:21:56;;;;;;;8.00;6.30;;;22.20;99.90;;;;;;5025220;28;20221;-57
2023/06/08 10:24:24;;;;;;;9.90;6.50;;;22.20;99.90;;;;;;5025138;28;20295;-57
2023/06/08 10:26:51;;;;;;;7.93;6.20;;;22.70;99.90;;;;;;5024092;28;20320;-57
2023/06/08 10:29:26;;;;;;;11.37;6.20;;;23.10;99.90;;;;;;5023997;28;20208;-57
2023/06/08 10:31:54;;;;;;;8.60;5.27;;;22.90;99.90;;;;;;5025044;28;20222;-57
2023/06/08 10:34:21;;;;;;;11.47;5.53;;;22.70;99.90;;;;;;5024342;28;20269;-57
2023/06/08 10:36:48;;;;;;;8.60;5.00;;;22.80;99.90;;;;;;5020208;28;20762;-57
2023/06/08 10:39:17;;;;;;;10.00;6.00;;;22.40;99.90;;;;;;5017534;28;20219;-57
2023/06/08 10:41:52;;;;;;;10.10;5.83;;;22.10;99.90;;;;;;5023534;28;20216;-57
2023/06/08 10:44:27;;;;;;;8.10;6.90;;;22.20;99.90;;;;;;5022434;28;20233;-57
2023/06/08 10:47:01;;;;;;;7.67;5.93;;;21.60;99.90;;;;;;5024315;28;20691;-60
2023/06/08 10:49:34;;;;;;;12.93;7.10;;;21.90;99.90;;;;;;5026139;28;20303;-57
2023/06/08 10:52:03;;;;;;;8.47;6.10;;;21.80;99.90;;;;;;5026240;28;20211;-57
2023/06/08 10:54:31;;;;;;;8.90;6.47;;;21.40;99.90;;;;;;5021777;28;20252;-57
2023/06/08 10:57:03;;;;;;;8.93;6.33;;;21.40;99.90;;;;;;5026061;28;20205;-57
2023/06/08 10:59:44;;;;;;;7.60;6.00;;;21.50;99.90;;;;;;5019649;28;20209;-58
2023/06/08 11:02:11;;;;;;;9.17;5.43;;;21.80;99.90;;;;;;5010440;28;20212;-59
2023/06/08 11:04:38;;;;;;;9.13;5.80;;;22.00;99.90;;;;;;5025285;28;20327;-56
2023/06/08 11:07:25;;;;;;;10.40;6.90;;;22.00;99.90;;;;;;5027959;28;20574;-57
2023/06/08 11:09:53;;;;;;;9.90;6.77;;;22.50;99.90;;;;;;5024731;28;20672;-57
2023/06/08 11:12:20;;;;;;;7.40;6.07;;;22.70;99.90;;;;;;5026638;28;20285;-57
2023/06/08 11:14:47;;;;;;;9.87;6.17;;;23.00;99.90;;;;;;5025551;28;20270;-57
2023/06/08 11:17:14;;;;;;;9.77;6.20;;;23.30;99.90;;;;;;5026027;28;20215;-58
2023/06/08 11:19:41;;;;;;;10.13;6.40;;;23.70;99.90;;;;;;5021150;28;20201;-59
2023/06/08 11:22:08;;;;;;;7.97;6.00;;;23.90;99.90;;;;;;5024979;28;20216;-57
2023/06/08 11:24:35;;;;;;;7.60;5.10;;;24.10;99.90;;;;;;5026784;28;20205;-58
2023/06/08 11:27:02;;;;;;;10.37;5.17;;;24.00;99.90;;;;;;5023863;28;20238;-57
2023/06/08 11:29:32;;;;;;;7.93;6.13;;;24.50;99.90;;;;;;5025330;28;20204;-57
2023/06/08 11:32:12;;;;;;;11.33;6.17;;;24.20;99.90;;;;;;5018935;28;20208;-57
2023/06/08 11:34:45;;;;;;;12.53;6.27;;;24.30;99.90;;;;;;5015958;28;20240;-57
2023/06/08 11:37:18;;;;;;;8.10;5.90;;;24.00;99.90;;;;;;5023322;28;20207;-59
2023/06/08 11:39:46;;;;;;;8.77;5.73;;;23.80;99.90;;;;;;5021350;28;20229;-59
2023/06/08 11:42:14;;;;;;;11.27;6.17;;;23.80;99.90;;;;;;5022332;28;20229;-58
2023/06/08 11:44:41;;;;;;;7.77;5.13;;;24.10;99.90;;;;;;5027466;28;20302;-59
2023/06/08 11:47:08;;;;;;;6.37;5.00;;;24.80;99.90;;;;;;5028513;28;20246;-56
2023/06/08 11:49:55;;;;;;;9.83;5.90;;;24.50;99.90;;;;;;5023235;28;20202;-57
2023/06/08 11:52:22;;;;;;;10.20;6.23;;;25.30;99.90;;;;;;5026419;28;21045;-57
2023/06/08 11:55:01;;;;;;;9.50;6.57;;;25.50;99.90;;;;;;5020988;28;20239;-56
2023/06/08 11:57:51;;;;;;;8.17;5.83;;;25.60;99.90;;;;;;5025339;28;20736;-57
2023/06/08 12:00:22;;;;;;;11.23;5.53;;;25.50;99.90;;;;;;5021494;28;20214;-57
2023/06/08 12:02:50;;;;;;;9.97;5.17;;;25.90;99.90;;;;;;5023996;28;20730;-57
2023/06/08 12:05:29;;;;;;;8.63;5.40;;;25.40;99.90;;;;;;5021790;28;20555;-55
2023/06/08 12:08:02;;;;;;;8.27;5.27;;;26.10;99.90;;;;;;5017300;28;20216;-55
2023/06/08 12:10:37;;;;;;;6.60;4.80;;;26.60;99.90;;;;;;5022241;28;20204;-55
2023/06/08 12:13:16;;;;;;;8.83;6.00;;;27.10;99.90;;;;;;5021947;28;20230;-56
2023/06/08 12:15:45;;;;;;;5.43;4.70;;;27.30;99.90;;;;;;5021490;28;20200;-55
2023/06/08 12:18:17;;;;;;;8.33;5.43;;;28.70;99.90;;;;;;5005798;28;20293;-56
2023/06/08 12:20:52;;;;;;;8.00;4.80;;;28.20;99.90;;;;;;5016985;28;20283;-55
2023/06/08 12:23:19;;;;;;;6.57;5.07;;;28.30;99.90;;;;;;5015987;28;20227;-55
2023/06/08 12:25:51;;;;;;;7.68;4.95;;;28.20;99.90;;;;;;5019259;28;20220;-55
2023/06/08 12:28:22;;;;;;;8.25;4.45;;;29.00;99.90;;;;;;5014037;28;20207;-55
2023/06/08 12:30:50;;;;;;;6.05;4.43;;;29.40;99.90;;;;;;5018619;28;20732;-55
2023/06/08 12:33:18;;;;;;;7.72;5.32;;;28.70;99.90;;;;;;5016290;28;20225;-55
2023/06/08 12:35:46;;;;;;;6.45;4.75;;;28.10;99.90;;;;;;5017709;28;20287;-55
2023/06/08 12:38:13;;;;;;;7.25;4.70;;;27.50;99.90;;;;;;5023762;28;20838;-55
2023/06/08 12:40:46;;;;;;;9.85;4.38;;;27.70;99.90;;;;;;5021841;28;20743;-57
2023/06/08 12:43:18;;;;;;;4.72;4.22;;;28.20;99.90;;;;;;5025887;28;20204;-55
2023/06/08 12:45:45;;;;;;;8.57;4.65;;;28.10;99.90;;;;;;5027457;28;20675;-55
2023/06/08 12:48:15;;;;;;;7.63;4.78;;;28.30;99.90;;;;;;5027176;28;20463;-58
2023/06/08 12:50:42;;;;;;;7.63;4.57;;;28.40;99.90;;;;;;5026020;28;20268;-56
2023/06/08 12:53:09;;;;;;;8.43;4.28;;;28.30;99.90;;;;;;5023322;28;20284;-56
2023/06/08 12:55:36;;;;;;;8.30;4.03;;;28.10;99.90;;;;;;5027293;28;20205;-56
2023/06/08 12:58:04;;;;;;;7.15;4.60;;;27.80;99.90;;;;;;5024582;28;20732;-56